モロニ の空港の天気 - METARとTAF

プリンス・サイード・イブラヒーム国際空港 ( FMCH / HAH ) - コモロ モロニ
飛行場実況気象(Metar)
観測時間01/29 09:00 EAT (01/29 06:00 UTC)
風向・風速北北西 4m/s
視程10km以上
天気現象
少しの雲 雲底高度 610m
気温30℃
湿度66%
気圧1013hPa
METARFMCH 290600Z 33007KT 9999 FEW020 30/23 Q1013 NOSIG
過去の天気等 Google飛行場航空写真 Wunderground天気予報

過去48時間のMETAR

飛行場予報(TAF)
発表時間: -
29日18時 EAT ~ 29日20時 EAT に徐々に
風向・風速北東 2m/s
30日8時 EAT ~ 30日10時 EAT に徐々に
風向・風速西北西 5m/s
TAF
FMCH 290500Z 2906/3012 30010KT 9999 FEW020
BECMG 2915/2917 05003KT
BECMG 3005/3007 30010KT